sensor_id;sensor_type;location;lat;lon;timestamp;P1;durP1;ratioP1;P2;durP2;ratioP2
46863;SDS011;32598;50.204;6.408;2024-03-25T00:00:21;14.48;;;7.07;;
46863;SDS011;32598;50.204;6.408;2024-03-25T00:02:49;22.63;;;8.55;;
46863;SDS011;32598;50.204;6.408;2024-03-25T00:05:15;19.40;;;7.97;;
46863;SDS011;32598;50.204;6.408;2024-03-25T00:07:45;16.35;;;7.68;;
46863;SDS011;32598;50.204;6.408;2024-03-25T00:10:10;18.30;;;8.20;;
46863;SDS011;32598;50.204;6.408;2024-03-25T00:12:35;18.10;;;7.47;;
46863;SDS011;32598;50.204;6.408;2024-03-25T00:15:00;25.33;;;9.52;;
46863;SDS011;32598;50.204;6.408;2024-03-25T00:17:26;15.82;;;7.97;;
46863;SDS011;32598;50.204;6.408;2024-03-25T00:19:51;22.67;;;8.40;;
46863;SDS011;32598;50.204;6.408;2024-03-25T00:22:17;17.33;;;8.00;;
46863;SDS011;32598;50.204;6.408;2024-03-25T00:24:42;18.67;;;6.93;;
46863;SDS011;32598;50.204;6.408;2024-03-25T00:27:07;25.47;;;8.37;;
46863;SDS011;32598;50.204;6.408;2024-03-25T00:29:33;18.77;;;7.57;;
46863;SDS011;32598;50.204;6.408;2024-03-25T00:31:58;16.58;;;6.95;;
46863;SDS011;32598;50.204;6.408;2024-03-25T00:34:23;19.15;;;7.80;;
46863;SDS011;32598;50.204;6.408;2024-03-25T00:36:48;20.88;;;7.40;;
46863;SDS011;32598;50.204;6.408;2024-03-25T00:39:13;16.13;;;6.82;;
46863;SDS011;32598;50.204;6.408;2024-03-25T00:41:39;17.25;;;6.97;;
46863;SDS011;32598;50.204;6.408;2024-03-25T00:44:04;18.38;;;6.82;;
46863;SDS011;32598;50.204;6.408;2024-03-25T00:46:29;19.65;;;7.63;;
46863;SDS011;32598;50.204;6.408;2024-03-25T00:48:54;20.95;;;7.15;;
46863;SDS011;32598;50.204;6.408;2024-03-25T00:51:19;16.25;;;6.85;;
46863;SDS011;32598;50.204;6.408;2024-03-25T00:53:45;18.75;;;6.63;;
46863;SDS011;32598;50.204;6.408;2024-03-25T00:56:10;16.10;;;6.85;;
46863;SDS011;32598;50.204;6.408;2024-03-25T00:58:35;16.67;;;6.78;;
46863;SDS011;32598;50.204;6.408;2024-03-25T01:01:00;28.38;;;7.45;;
46863;SDS011;32598;50.204;6.408;2024-03-25T01:03:25;17.75;;;6.60;;
46863;SDS011;32598;50.204;6.408;2024-03-25T01:05:51;19.63;;;7.15;;
46863;SDS011;32598;50.204;6.408;2024-03-25T01:08:16;16.30;;;6.33;;
46863;SDS011;32598;50.204;6.408;2024-03-25T01:10:41;22.50;;;7.30;;
46863;SDS011;32598;50.204;6.408;2024-03-25T01:13:06;18.80;;;7.22;;
46863;SDS011;32598;50.204;6.408;2024-03-25T01:15:32;16.80;;;6.23;;
46863;SDS011;32598;50.204;6.408;2024-03-25T01:17:57;14.17;;;6.30;;
46863;SDS011;32598;50.204;6.408;2024-03-25T01:20:22;19.03;;;6.03;;
46863;SDS011;32598;50.204;6.408;2024-03-25T01:22:47;15.55;;;6.32;;
46863;SDS011;32598;50.204;6.408;2024-03-25T01:25:12;21.65;;;7.32;;
46863;SDS011;32598;50.204;6.408;2024-03-25T01:27:37;18.10;;;6.68;;
46863;SDS011;32598;50.204;6.408;2024-03-25T01:30:03;19.73;;;6.18;;
46863;SDS011;32598;50.204;6.408;2024-03-25T01:32:29;19.85;;;6.97;;
46863;SDS011;32598;50.204;6.408;2024-03-25T01:34:55;18.80;;;6.32;;
46863;SDS011;32598;50.204;6.408;2024-03-25T01:37:20;19.60;;;6.93;;
46863;SDS011;32598;50.204;6.408;2024-03-25T01:39:45;25.40;;;8.10;;
46863;SDS011;32598;50.204;6.408;2024-03-25T01:42:10;18.90;;;6.32;;
46863;SDS011;32598;50.204;6.408;2024-03-25T01:44:36;19.53;;;6.80;;
46863;SDS011;32598;50.204;6.408;2024-03-25T01:47:02;20.23;;;6.25;;
46863;SDS011;32598;50.204;6.408;2024-03-25T01:49:27;20.85;;;5.53;;
46863;SDS011;32598;50.204;6.408;2024-03-25T01:51:52;19.52;;;5.47;;
46863;SDS011;32598;50.204;6.408;2024-03-25T01:54:18;20.90;;;5.57;;
46863;SDS011;32598;50.204;6.408;2024-03-25T01:56:44;18.80;;;5.63;;
46863;SDS011;32598;50.204;6.408;2024-03-25T01:59:11;18.02;;;5.30;;
46863;SDS011;32598;50.204;6.408;2024-03-25T02:01:37;19.95;;;5.15;;
46863;SDS011;32598;50.204;6.408;2024-03-25T02:04:02;25.73;;;5.40;;
46863;SDS011;32598;50.204;6.408;2024-03-25T02:06:28;15.27;;;5.25;;
46863;SDS011;32598;50.204;6.408;2024-03-25T02:08:54;22.38;;;5.15;;
46863;SDS011;32598;50.204;6.408;2024-03-25T02:11:19;16.48;;;5.15;;
46863;SDS011;32598;50.204;6.408;2024-03-25T02:13:45;16.23;;;5.20;;
46863;SDS011;32598;50.204;6.408;2024-03-25T02:16:10;14.40;;;5.07;;
46863;SDS011;32598;50.204;6.408;2024-03-25T02:18:36;16.70;;;5.70;;
46863;SDS011;32598;50.204;6.408;2024-03-25T02:21:01;18.47;;;4.83;;
46863;SDS011;32598;50.204;6.408;2024-03-25T02:23:26;17.23;;;5.57;;
46863;SDS011;32598;50.204;6.408;2024-03-25T02:25:52;14.75;;;4.45;;
46863;SDS011;32598;50.204;6.408;2024-03-25T02:28:17;21.33;;;5.38;;
46863;SDS011;32598;50.204;6.408;2024-03-25T02:30:43;17.90;;;5.45;;
46863;SDS011;32598;50.204;6.408;2024-03-25T02:33:08;15.50;;;4.88;;
46863;SDS011;32598;50.204;6.408;2024-03-25T02:35:33;14.20;;;5.00;;
46863;SDS011;32598;50.204;6.408;2024-03-25T02:37:59;18.35;;;5.45;;
46863;SDS011;32598;50.204;6.408;2024-03-25T02:40:24;22.38;;;5.75;;
46863;SDS011;32598;50.204;6.408;2024-03-25T02:42:51;18.30;;;5.57;;
46863;SDS011;32598;50.204;6.408;2024-03-25T02:45:16;20.40;;;6.03;;
46863;SDS011;32598;50.204;6.408;2024-03-25T02:47:41;16.33;;;5.80;;
46863;SDS011;32598;50.204;6.408;2024-03-25T02:50:06;19.35;;;6.35;;
46863;SDS011;32598;50.204;6.408;2024-03-25T02:52:32;19.55;;;6.95;;
46863;SDS011;32598;50.204;6.408;2024-03-25T02:54:57;15.90;;;5.50;;
46863;SDS011;32598;50.204;6.408;2024-03-25T02:57:22;22.17;;;5.70;;
46863;SDS011;32598;50.204;6.408;2024-03-25T02:59:48;11.05;;;5.60;;
46863;SDS011;32598;50.204;6.408;2024-03-25T03:02:13;14.55;;;5.35;;
46863;SDS011;32598;50.204;6.408;2024-03-25T03:04:38;21.58;;;7.00;;
46863;SDS011;32598;50.204;6.408;2024-03-25T03:07:03;21.80;;;7.00;;
46863;SDS011;32598;50.204;6.408;2024-03-25T03:09:32;16.52;;;6.25;;
46863;SDS011;32598;50.204;6.408;2024-03-25T03:11:57;23.58;;;6.28;;
46863;SDS011;32598;50.204;6.408;2024-03-25T03:14:22;14.00;;;5.30;;
46863;SDS011;32598;50.204;6.408;2024-03-25T03:16:47;14.82;;;5.50;;
46863;SDS011;32598;50.204;6.408;2024-03-25T03:19:12;17.63;;;6.73;;
46863;SDS011;32598;50.204;6.408;2024-03-25T03:21:37;16.58;;;6.68;;
46863;SDS011;32598;50.204;6.408;2024-03-25T03:24:06;15.70;;;5.80;;
46863;SDS011;32598;50.204;6.408;2024-03-25T03:26:31;16.63;;;6.07;;
46863;SDS011;32598;50.204;6.408;2024-03-25T03:28:57;19.10;;;7.32;;
46863;SDS011;32598;50.204;6.408;2024-03-25T03:31:22;22.70;;;7.13;;
46863;SDS011;32598;50.204;6.408;2024-03-25T03:33:47;15.98;;;6.03;;
46863;SDS011;32598;50.204;6.408;2024-03-25T03:36:14;16.20;;;6.63;;
46863;SDS011;32598;50.204;6.408;2024-03-25T03:38:39;17.10;;;6.65;;
46863;SDS011;32598;50.204;6.408;2024-03-25T03:41:04;17.35;;;7.75;;
46863;SDS011;32598;50.204;6.408;2024-03-25T03:43:29;15.85;;;6.93;;
46863;SDS011;32598;50.204;6.408;2024-03-25T03:45:54;18.88;;;8.02;;
46863;SDS011;32598;50.204;6.408;2024-03-25T03:48:20;17.58;;;7.43;;
46863;SDS011;32598;50.204;6.408;2024-03-25T03:50:45;18.90;;;8.27;;
46863;SDS011;32598;50.204;6.408;2024-03-25T03:53:11;18.67;;;7.93;;
46863;SDS011;32598;50.204;6.408;2024-03-25T03:55:36;18.52;;;9.63;;
46863;SDS011;32598;50.204;6.408;2024-03-25T03:58:02;19.02;;;8.10;;
46863;SDS011;32598;50.204;6.408;2024-03-25T04:00:27;19.08;;;10.35;;
46863;SDS011;32598;50.204;6.408;2024-03-25T04:02:52;23.98;;;10.65;;
46863;SDS011;32598;50.204;6.408;2024-03-25T04:05:17;22.45;;;9.18;;
46863;SDS011;32598;50.204;6.408;2024-03-25T04:07:43;18.75;;;8.40;;
46863;SDS011;32598;50.204;6.408;2024-03-25T04:10:08;19.98;;;10.40;;
46863;SDS011;32598;50.204;6.408;2024-03-25T04:12:34;18.98;;;9.43;;
46863;SDS011;32598;50.204;6.408;2024-03-25T04:15:00;18.48;;;8.20;;
46863;SDS011;32598;50.204;6.408;2024-03-25T04:17:25;16.05;;;8.50;;
46863;SDS011;32598;50.204;6.408;2024-03-25T04:19:50;17.95;;;8.85;;
46863;SDS011;32598;50.204;6.408;2024-03-25T04:22:16;20.48;;;9.15;;
46863;SDS011;32598;50.204;6.408;2024-03-25T04:24:42;21.15;;;9.27;;
46863;SDS011;32598;50.204;6.408;2024-03-25T04:27:07;18.77;;;8.45;;
46863;SDS011;32598;50.204;6.408;2024-03-25T04:29:32;23.50;;;10.07;;
46863;SDS011;32598;50.204;6.408;2024-03-25T04:31:58;21.38;;;9.27;;
46863;SDS011;32598;50.204;6.408;2024-03-25T04:34:23;21.00;;;10.05;;
46863;SDS011;32598;50.204;6.408;2024-03-25T04:36:48;22.63;;;10.52;;
46863;SDS011;32598;50.204;6.408;2024-03-25T04:39:13;22.83;;;10.07;;
46863;SDS011;32598;50.204;6.408;2024-03-25T04:41:39;21.65;;;9.75;;
46863;SDS011;32598;50.204;6.408;2024-03-25T04:44:05;24.10;;;11.32;;
46863;SDS011;32598;50.204;6.408;2024-03-25T04:46:30;22.33;;;10.45;;
46863;SDS011;32598;50.204;6.408;2024-03-25T04:48:55;22.55;;;11.65;;
46863;SDS011;32598;50.204;6.408;2024-03-25T04:51:21;25.77;;;11.48;;
46863;SDS011;32598;50.204;6.408;2024-03-25T04:53:46;23.58;;;11.45;;
46863;SDS011;32598;50.204;6.408;2024-03-25T04:56:11;21.20;;;10.73;;
46863;SDS011;32598;50.204;6.408;2024-03-25T04:58:36;25.95;;;11.60;;
46863;SDS011;32598;50.204;6.408;2024-03-25T05:01:01;19.83;;;11.30;;
46863;SDS011;32598;50.204;6.408;2024-03-25T05:03:26;25.60;;;11.98;;
46863;SDS011;32598;50.204;6.408;2024-03-25T05:05:51;22.65;;;11.07;;
46863;SDS011;32598;50.204;6.408;2024-03-25T05:08:17;26.80;;;12.45;;
46863;SDS011;32598;50.204;6.408;2024-03-25T05:10:42;22.20;;;11.32;;
46863;SDS011;32598;50.204;6.408;2024-03-25T05:13:07;23.05;;;12.32;;
46863;SDS011;32598;50.204;6.408;2024-03-25T05:15:32;23.02;;;12.35;;
46863;SDS011;32598;50.204;6.408;2024-03-25T05:17:57;25.40;;;13.05;;
46863;SDS011;32598;50.204;6.408;2024-03-25T05:20:22;28.63;;;12.75;;
46863;SDS011;32598;50.204;6.408;2024-03-25T05:22:48;20.70;;;10.90;;
46863;SDS011;32598;50.204;6.408;2024-03-25T05:25:13;19.48;;;11.15;;
46863;SDS011;32598;50.204;6.408;2024-03-25T05:27:38;20.52;;;12.10;;
46863;SDS011;32598;50.204;6.408;2024-03-25T05:30:03;20.97;;;12.30;;
46863;SDS011;32598;50.204;6.408;2024-03-25T05:32:29;19.65;;;11.10;;
46863;SDS011;32598;50.204;6.408;2024-03-25T05:34:54;23.52;;;11.57;;
46863;SDS011;32598;50.204;6.408;2024-03-25T05:37:19;21.38;;;10.77;;
46863;SDS011;32598;50.204;6.408;2024-03-25T05:39:44;22.23;;;12.15;;
46863;SDS011;32598;50.204;6.408;2024-03-25T05:42:09;23.27;;;12.80;;
46863;SDS011;32598;50.204;6.408;2024-03-25T05:44:34;23.10;;;12.02;;
46863;SDS011;32598;50.204;6.408;2024-03-25T05:46:59;22.23;;;12.55;;
46863;SDS011;32598;50.204;6.408;2024-03-25T05:49:25;21.75;;;11.48;;
46863;SDS011;32598;50.204;6.408;2024-03-25T05:51:51;23.88;;;12.25;;
46863;SDS011;32598;50.204;6.408;2024-03-25T05:54:16;28.08;;;11.93;;
46863;SDS011;32598;50.204;6.408;2024-03-25T05:56:41;21.10;;;11.68;;
46863;SDS011;32598;50.204;6.408;2024-03-25T05:59:06;22.40;;;12.10;;
46863;SDS011;32598;50.204;6.408;2024-03-25T06:01:31;29.53;;;13.17;;
46863;SDS011;32598;50.204;6.408;2024-03-25T06:03:56;45.85;;;15.30;;
46863;SDS011;32598;50.204;6.408;2024-03-25T06:06:22;28.98;;;13.90;;
46863;SDS011;32598;50.204;6.408;2024-03-25T06:08:47;32.67;;;13.97;;
46863;SDS011;32598;50.204;6.408;2024-03-25T06:11:14;28.85;;;13.75;;
46863;SDS011;32598;50.204;6.408;2024-03-25T06:13:39;64.70;;;15.40;;
46863;SDS011;32598;50.204;6.408;2024-03-25T06:16:05;28.83;;;13.98;;
46863;SDS011;32598;50.204;6.408;2024-03-25T06:18:30;88.10;;;14.18;;
46863;SDS011;32598;50.204;6.408;2024-03-25T06:20:55;44.28;;;12.98;;
46863;SDS011;32598;50.204;6.408;2024-03-25T06:23:27;21.70;;;10.35;;
46863;SDS011;32598;50.204;6.408;2024-03-25T06:25:52;28.48;;;10.93;;
46863;SDS011;32598;50.204;6.408;2024-03-25T06:28:18;77.63;;;13.95;;
46863;SDS011;32598;50.204;6.408;2024-03-25T06:30:44;61.47;;;12.70;;
46863;SDS011;32598;50.204;6.408;2024-03-25T06:33:28;100.30;;;13.82;;
46863;SDS011;32598;50.204;6.408;2024-03-25T06:38:37;62.20;;;12.73;;
46863;SDS011;32598;50.204;6.408;2024-03-25T06:41:02;72.97;;;12.82;;
46863;SDS011;32598;50.204;6.408;2024-03-25T06:43:28;85.80;;;12.55;;
46863;SDS011;32598;50.204;6.408;2024-03-25T06:45:53;29.48;;;11.55;;
46863;SDS011;32598;50.204;6.408;2024-03-25T06:48:18;115.00;;;14.57;;
46863;SDS011;32598;50.204;6.408;2024-03-25T06:50:51;51.58;;;11.25;;
46863;SDS011;32598;50.204;6.408;2024-03-25T06:53:17;80.93;;;12.32;;
46863;SDS011;32598;50.204;6.408;2024-03-25T06:55:42;51.63;;;10.98;;
46863;SDS011;32598;50.204;6.408;2024-03-25T06:58:07;54.53;;;11.55;;
46863;SDS011;32598;50.204;6.408;2024-03-25T07:00:34;32.45;;;10.68;;
46863;SDS011;32598;50.204;6.408;2024-03-25T07:02:59;76.20;;;12.88;;
46863;SDS011;32598;50.204;6.408;2024-03-25T07:05:25;63.05;;;10.68;;
46863;SDS011;32598;50.204;6.408;2024-03-25T07:07:50;60.72;;;12.73;;
46863;SDS011;32598;50.204;6.408;2024-03-25T07:10:15;48.78;;;9.57;;
46863;SDS011;32598;50.204;6.408;2024-03-25T07:12:40;144.47;;;16.73;;
46863;SDS011;32598;50.204;6.408;2024-03-25T07:15:06;66.18;;;10.10;;
46863;SDS011;32598;50.204;6.408;2024-03-25T07:17:31;49.17;;;10.25;;
46863;SDS011;32598;50.204;6.408;2024-03-25T07:19:56;95.10;;;11.73;;
46863;SDS011;32598;50.204;6.408;2024-03-25T07:22:21;25.88;;;8.10;;
46863;SDS011;32598;50.204;6.408;2024-03-25T07:24:46;30.20;;;9.20;;
46863;SDS011;32598;50.204;6.408;2024-03-25T07:27:11;66.55;;;13.20;;
46863;SDS011;32598;50.204;6.408;2024-03-25T07:29:37;31.80;;;9.45;;
46863;SDS011;32598;50.204;6.408;2024-03-25T07:32:03;77.88;;;12.82;;
46863;SDS011;32598;50.204;6.408;2024-03-25T07:34:28;38.88;;;9.25;;
46863;SDS011;32598;50.204;6.408;2024-03-25T07:36:53;57.58;;;11.73;;
46863;SDS011;32598;50.204;6.408;2024-03-25T07:39:18;66.90;;;11.02;;
46863;SDS011;32598;50.204;6.408;2024-03-25T07:41:43;92.50;;;13.20;;
46863;SDS011;32598;50.204;6.408;2024-03-25T07:44:08;56.60;;;9.82;;
46863;SDS011;32598;50.204;6.408;2024-03-25T07:46:34;36.22;;;9.25;;
46863;SDS011;32598;50.204;6.408;2024-03-25T07:48:59;16.67;;;7.75;;
46863;SDS011;32598;50.204;6.408;2024-03-25T07:51:24;19.98;;;8.38;;
46863;SDS011;32598;50.204;6.408;2024-03-25T07:53:49;24.05;;;8.02;;
46863;SDS011;32598;50.204;6.408;2024-03-25T07:56:15;21.02;;;8.70;;
46863;SDS011;32598;50.204;6.408;2024-03-25T07:58:40;19.85;;;8.52;;
46863;SDS011;32598;50.204;6.408;2024-03-25T08:01:05;46.63;;;8.03;;
46863;SDS011;32598;50.204;6.408;2024-03-25T08:03:30;40.67;;;8.45;;
46863;SDS011;32598;50.204;6.408;2024-03-25T08:05:55;61.72;;;8.93;;
46863;SDS011;32598;50.204;6.408;2024-03-25T08:08:20;26.08;;;8.02;;
46863;SDS011;32598;50.204;6.408;2024-03-25T08:10:46;20.67;;;8.13;;
46863;SDS011;32598;50.204;6.408;2024-03-25T08:13:11;60.33;;;9.63;;
46863;SDS011;32598;50.204;6.408;2024-03-25T08:15:36;65.40;;;9.97;;
46863;SDS011;32598;50.204;6.408;2024-03-25T08:18:02;25.33;;;8.75;;
46863;SDS011;32598;50.204;6.408;2024-03-25T08:20:27;21.23;;;8.25;;
46863;SDS011;32598;50.204;6.408;2024-03-25T08:22:52;22.27;;;8.77;;
46863;SDS011;32598;50.204;6.408;2024-03-25T08:25:17;22.90;;;8.80;;
46863;SDS011;32598;50.204;6.408;2024-03-25T08:27:42;33.33;;;9.57;;
46863;SDS011;32598;50.204;6.408;2024-03-25T08:30:07;19.40;;;9.30;;
46863;SDS011;32598;50.204;6.408;2024-03-25T08:32:33;15.48;;;9.88;;
46863;SDS011;32598;50.204;6.408;2024-03-25T08:34:58;17.98;;;10.82;;
46863;SDS011;32598;50.204;6.408;2024-03-25T08:37:23;28.38;;;9.93;;
46863;SDS011;32598;50.204;6.408;2024-03-25T08:39:48;23.95;;;10.95;;
46863;SDS011;32598;50.204;6.408;2024-03-25T08:42:14;20.25;;;8.90;;
46863;SDS011;32598;50.204;6.408;2024-03-25T08:44:39;24.67;;;12.68;;
46863;SDS011;32598;50.204;6.408;2024-03-25T08:47:04;34.03;;;11.07;;
46863;SDS011;32598;50.204;6.408;2024-03-25T08:49:29;18.67;;;9.82;;
46863;SDS011;32598;50.204;6.408;2024-03-25T08:51:54;29.17;;;10.55;;
46863;SDS011;32598;50.204;6.408;2024-03-25T08:54:19;19.23;;;10.80;;
46863;SDS011;32598;50.204;6.408;2024-03-25T08:56:44;18.93;;;10.57;;
46863;SDS011;32598;50.204;6.408;2024-03-25T08:59:10;22.33;;;11.70;;
46863;SDS011;32598;50.204;6.408;2024-03-25T09:01:35;21.90;;;10.75;;
46863;SDS011;32598;50.204;6.408;2024-03-25T09:04:00;22.37;;;11.57;;
46863;SDS011;32598;50.204;6.408;2024-03-25T09:06:25;21.63;;;11.57;;
46863;SDS011;32598;50.204;6.408;2024-03-25T09:08:50;23.13;;;11.45;;
46863;SDS011;32598;50.204;6.408;2024-03-25T09:11:34;21.38;;;12.45;;
46863;SDS011;32598;50.204;6.408;2024-03-25T09:14:00;22.23;;;12.07;;
46863;SDS011;32598;50.204;6.408;2024-03-25T09:16:27;22.90;;;11.55;;
46863;SDS011;32598;50.204;6.408;2024-03-25T09:18:53;23.95;;;12.38;;
46863;SDS011;32598;50.204;6.408;2024-03-25T09:21:18;20.48;;;11.93;;
46863;SDS011;32598;50.204;6.408;2024-03-25T09:23:43;19.58;;;11.32;;
46863;SDS011;32598;50.204;6.408;2024-03-25T09:26:08;18.15;;;10.55;;
46863;SDS011;32598;50.204;6.408;2024-03-25T09:28:35;21.80;;;11.70;;
46863;SDS011;32598;50.204;6.408;2024-03-25T09:31:00;21.05;;;10.95;;
46863;SDS011;32598;50.204;6.408;2024-03-25T09:33:26;18.55;;;10.95;;
46863;SDS011;32598;50.204;6.408;2024-03-25T09:35:51;16.27;;;11.20;;
46863;SDS011;32598;50.204;6.408;2024-03-25T09:38:16;19.23;;;12.13;;
46863;SDS011;32598;50.204;6.408;2024-03-25T09:40:41;20.13;;;12.18;;
46863;SDS011;32598;50.204;6.408;2024-03-25T09:43:12;19.42;;;10.30;;
46863;SDS011;32598;50.204;6.408;2024-03-25T09:45:38;17.95;;;10.90;;
46863;SDS011;32598;50.204;6.408;2024-03-25T09:48:05;20.10;;;11.45;;
46863;SDS011;32598;50.204;6.408;2024-03-25T09:50:30;19.42;;;10.50;;
46863;SDS011;32598;50.204;6.408;2024-03-25T09:52:56;21.40;;;10.73;;
46863;SDS011;32598;50.204;6.408;2024-03-25T09:55:21;16.10;;;9.93;;
46863;SDS011;32598;50.204;6.408;2024-03-25T09:57:47;20.40;;;10.63;;
46863;SDS011;32598;50.204;6.408;2024-03-25T10:00:12;19.63;;;10.27;;
46863;SDS011;32598;50.204;6.408;2024-03-25T10:02:39;15.98;;;10.32;;
46863;SDS011;32598;50.204;6.408;2024-03-25T10:05:05;23.77;;;11.43;;
46863;SDS011;32598;50.204;6.408;2024-03-25T10:07:31;18.27;;;10.95;;
46863;SDS011;32598;50.204;6.408;2024-03-25T10:09:57;21.20;;;12.20;;
46863;SDS011;32598;50.204;6.408;2024-03-25T10:12:23;21.27;;;11.27;;
46863;SDS011;32598;50.204;6.408;2024-03-25T10:14:48;20.90;;;11.43;;
46863;SDS011;32598;50.204;6.408;2024-03-25T10:17:13;22.52;;;12.00;;
46863;SDS011;32598;50.204;6.408;2024-03-25T10:19:38;18.95;;;9.80;;
46863;SDS011;32598;50.204;6.408;2024-03-25T10:22:07;16.90;;;10.27;;
46863;SDS011;32598;50.204;6.408;2024-03-25T10:24:39;16.92;;;9.70;;
46863;SDS011;32598;50.204;6.408;2024-03-25T10:27:05;17.63;;;9.50;;
46863;SDS011;32598;50.204;6.408;2024-03-25T10:29:30;18.65;;;9.27;;
46863;SDS011;32598;50.204;6.408;2024-03-25T10:31:59;19.38;;;8.63;;
46863;SDS011;32598;50.204;6.408;2024-03-25T10:34:24;19.23;;;9.35;;
46863;SDS011;32598;50.204;6.408;2024-03-25T10:36:49;17.52;;;9.13;;
46863;SDS011;32598;50.204;6.408;2024-03-25T10:39:14;17.87;;;9.67;;
46863;SDS011;32598;50.204;6.408;2024-03-25T10:41:41;19.15;;;9.50;;
46863;SDS011;32598;50.204;6.408;2024-03-25T10:44:07;18.33;;;9.43;;
46863;SDS011;32598;50.204;6.408;2024-03-25T10:46:32;16.70;;;9.85;;
46863;SDS011;32598;50.204;6.408;2024-03-25T10:49:08;14.63;;;8.15;;
46863;SDS011;32598;50.204;6.408;2024-03-25T10:51:37;22.25;;;9.70;;
46863;SDS011;32598;50.204;6.408;2024-03-25T10:54:03;21.60;;;9.80;;
46863;SDS011;32598;50.204;6.408;2024-03-25T10:56:28;15.27;;;8.50;;
46863;SDS011;32598;50.204;6.408;2024-03-25T10:58:53;20.40;;;8.95;;
46863;SDS011;32598;50.204;6.408;2024-03-25T11:01:21;22.00;;;9.00;;
46863;SDS011;32598;50.204;6.408;2024-03-25T11:03:47;16.45;;;8.20;;
46863;SDS011;32598;50.204;6.408;2024-03-25T11:06:13;16.00;;;8.77;;
46863;SDS011;32598;50.204;6.408;2024-03-25T11:08:38;17.38;;;7.88;;
46863;SDS011;32598;50.204;6.408;2024-03-25T11:11:05;19.52;;;8.60;;
46863;SDS011;32598;50.204;6.408;2024-03-25T11:13:30;18.05;;;8.70;;
46863;SDS011;32598;50.204;6.408;2024-03-25T11:15:56;17.25;;;9.05;;
46863;SDS011;32598;50.204;6.408;2024-03-25T11:18:24;16.08;;;8.68;;
46863;SDS011;32598;50.204;6.408;2024-03-25T11:20:59;18.92;;;9.00;;
46863;SDS011;32598;50.204;6.408;2024-03-25T11:23:25;20.20;;;8.35;;
46863;SDS011;32598;50.204;6.408;2024-03-25T11:25:54;18.80;;;8.00;;
46863;SDS011;32598;50.204;6.408;2024-03-25T11:28:26;13.45;;;7.13;;
46863;SDS011;32598;50.204;6.408;2024-03-25T11:30:51;14.43;;;7.72;;
46863;SDS011;32598;50.204;6.408;2024-03-25T11:33:16;16.17;;;7.53;;
46863;SDS011;32598;50.204;6.408;2024-03-25T11:35:41;17.88;;;6.63;;
46863;SDS011;32598;50.204;6.408;2024-03-25T11:38:07;13.23;;;6.30;;
46863;SDS011;32598;50.204;6.408;2024-03-25T11:40:32;16.08;;;7.20;;
46863;SDS011;32598;50.204;6.408;2024-03-25T11:42:58;15.03;;;6.77;;
46863;SDS011;32598;50.204;6.408;2024-03-25T11:45:23;14.23;;;5.90;;
46863;SDS011;32598;50.204;6.408;2024-03-25T11:47:50;16.95;;;5.95;;
46863;SDS011;32598;50.204;6.408;2024-03-25T11:50:16;12.60;;;5.33;;
46863;SDS011;32598;50.204;6.408;2024-03-25T11:52:41;11.68;;;5.45;;
46863;SDS011;32598;50.204;6.408;2024-03-25T11:55:07;12.63;;;5.57;;
46863;SDS011;32598;50.204;6.408;2024-03-25T11:57:36;13.20;;;5.75;;
46863;SDS011;32598;50.204;6.408;2024-03-25T12:00:02;11.32;;;5.07;;
46863;SDS011;32598;50.204;6.408;2024-03-25T12:02:31;16.90;;;5.90;;
46863;SDS011;32598;50.204;6.408;2024-03-25T12:04:56;12.13;;;5.47;;
46863;SDS011;32598;50.204;6.408;2024-03-25T12:07:21;12.73;;;5.37;;
46863;SDS011;32598;50.204;6.408;2024-03-25T12:09:47;13.00;;;5.18;;
46863;SDS011;32598;50.204;6.408;2024-03-25T12:12:32;10.15;;;3.97;;
46863;SDS011;32598;50.204;6.408;2024-03-25T12:14:57;11.98;;;4.72;;
46863;SDS011;32598;50.204;6.408;2024-03-25T12:17:22;12.13;;;4.60;;
46863;SDS011;32598;50.204;6.408;2024-03-25T12:20:06;11.93;;;4.53;;
46863;SDS011;32598;50.204;6.408;2024-03-25T12:22:36;8.63;;;3.90;;
46863;SDS011;32598;50.204;6.408;2024-03-25T12:25:01;8.13;;;3.10;;
46863;SDS011;32598;50.204;6.408;2024-03-25T12:27:28;9.90;;;3.92;;
46863;SDS011;32598;50.204;6.408;2024-03-25T12:30:11;9.80;;;3.33;;
46863;SDS011;32598;50.204;6.408;2024-03-25T12:32:40;7.75;;;3.00;;
46863;SDS011;32598;50.204;6.408;2024-03-25T12:35:09;10.82;;;3.80;;
46863;SDS011;32598;50.204;6.408;2024-03-25T12:37:36;13.73;;;3.95;;
46863;SDS011;32598;50.204;6.408;2024-03-25T12:40:01;7.95;;;3.33;;
46863;SDS011;32598;50.204;6.408;2024-03-25T12:42:27;8.45;;;3.80;;
46863;SDS011;32598;50.204;6.408;2024-03-25T12:44:53;9.83;;;3.60;;
46863;SDS011;32598;50.204;6.408;2024-03-25T12:47:18;7.28;;;3.67;;
46863;SDS011;32598;50.204;6.408;2024-03-25T12:49:43;8.65;;;3.72;;
46863;SDS011;32598;50.204;6.408;2024-03-25T12:52:08;8.50;;;3.57;;
46863;SDS011;32598;50.204;6.408;2024-03-25T12:54:34;9.38;;;3.20;;
46863;SDS011;32598;50.204;6.408;2024-03-25T12:56:59;9.52;;;3.53;;
46863;SDS011;32598;50.204;6.408;2024-03-25T12:59:24;9.88;;;4.43;;
46863;SDS011;32598;50.204;6.408;2024-03-25T13:01:49;11.80;;;4.77;;
46863;SDS011;32598;50.204;6.408;2024-03-25T13:04:16;9.00;;;4.18;;
46863;SDS011;32598;50.204;6.408;2024-03-25T13:06:41;13.93;;;3.97;;
46863;SDS011;32598;50.204;6.408;2024-03-25T13:09:06;9.35;;;3.95;;
46863;SDS011;32598;50.204;6.408;2024-03-25T13:11:31;11.02;;;4.85;;
46863;SDS011;32598;50.204;6.408;2024-03-25T13:13:57;11.47;;;4.90;;
46863;SDS011;32598;50.204;6.408;2024-03-25T13:16:22;9.65;;;3.92;;
46863;SDS011;32598;50.204;6.408;2024-03-25T13:18:47;8.27;;;4.45;;
46863;SDS011;32598;50.204;6.408;2024-03-25T13:21:12;10.15;;;4.40;;
46863;SDS011;32598;50.204;6.408;2024-03-25T13:23:37;11.20;;;4.27;;
46863;SDS011;32598;50.204;6.408;2024-03-25T13:26:02;12.07;;;5.13;;
46863;SDS011;32598;50.204;6.408;2024-03-25T13:28:28;10.27;;;4.38;;
46863;SDS011;32598;50.204;6.408;2024-03-25T13:30:53;12.13;;;4.57;;
46863;SDS011;32598;50.204;6.408;2024-03-25T13:33:18;11.68;;;4.28;;
46863;SDS011;32598;50.204;6.408;2024-03-25T13:35:43;10.48;;;3.95;;
46863;SDS011;32598;50.204;6.408;2024-03-25T13:38:08;11.68;;;4.18;;
46863;SDS011;32598;50.204;6.408;2024-03-25T13:40:33;11.87;;;4.30;;
46863;SDS011;32598;50.204;6.408;2024-03-25T13:42:59;10.02;;;3.88;;
46863;SDS011;32598;50.204;6.408;2024-03-25T13:45:24;10.18;;;4.00;;
46863;SDS011;32598;50.204;6.408;2024-03-25T13:47:50;13.25;;;3.95;;
46863;SDS011;32598;50.204;6.408;2024-03-25T13:50:15;7.47;;;3.55;;
46863;SDS011;32598;50.204;6.408;2024-03-25T13:52:40;11.27;;;4.30;;
46863;SDS011;32598;50.204;6.408;2024-03-25T13:55:05;8.13;;;3.80;;
46863;SDS011;32598;50.204;6.408;2024-03-25T13:57:30;11.45;;;3.88;;
46863;SDS011;32598;50.204;6.408;2024-03-25T13:59:56;9.02;;;3.70;;
46863;SDS011;32598;50.204;6.408;2024-03-25T14:02:21;8.55;;;3.97;;
46863;SDS011;32598;50.204;6.408;2024-03-25T14:04:47;11.40;;;3.72;;
46863;SDS011;32598;50.204;6.408;2024-03-25T14:07:12;11.20;;;3.53;;
46863;SDS011;32598;50.204;6.408;2024-03-25T14:09:37;7.40;;;3.13;;
46863;SDS011;32598;50.204;6.408;2024-03-25T14:12:02;10.25;;;3.25;;
46863;SDS011;32598;50.204;6.408;2024-03-25T14:14:28;8.73;;;3.10;;
46863;SDS011;32598;50.204;6.408;2024-03-25T14:16:53;10.93;;;3.63;;
46863;SDS011;32598;50.204;6.408;2024-03-25T14:19:18;13.77;;;4.13;;
46863;SDS011;32598;50.204;6.408;2024-03-25T14:21:44;9.20;;;4.05;;
46863;SDS011;32598;50.204;6.408;2024-03-25T14:24:09;9.90;;;3.42;;